Terminal Aerodrome Forecast
Issued by NWS Rapid City, SD

Home | Current Version | Previous Version | Text Only | Print | Product List | Glossary Off
Versions: 1 2 3 4 5 6 7 8 9 10 11 12 13 14 15 16 17 18 19 20 21 22 23 24 25 26 27 28 29

424
FTUS43 KUNR 271720
TAFRAP
TAF
KRAP 271720Z 2718/2818 35018G25KT 4SM -SN BR SCT006 OVC015
      TEMPO 2718/2722 2SM -SN BR BKN005
     FM280200 36015KT 2SM -SN BKN008 OVC015=

USA.gov is the U.S. government's official web portal to all federal, state and local government web resources and services.